sensor_id;sensor_type;location;lat;lon;timestamp;pressure;altitude;pressure_sealevel;temperature;humidity
71778;BME280;59609;52.430;4.668;2023-04-28T00:00:25;101417.66;;;10.29;65.83
71778;BME280;59609;52.430;4.668;2023-04-28T00:02:50;101417.78;;;10.27;66.06
71778;BME280;59609;52.430;4.668;2023-04-28T00:05:16;101414.19;;;10.27;65.83
71778;BME280;59609;52.430;4.668;2023-04-28T00:07:41;101405.94;;;10.27;67.05
71778;BME280;59609;52.430;4.668;2023-04-28T00:10:07;101394.63;;;10.30;66.90
71778;BME280;59609;52.430;4.668;2023-04-28T00:12:33;101393.44;;;10.32;66.70
71778;BME280;59609;52.430;4.668;2023-04-28T00:14:58;101395.94;;;10.26;67.21
71778;BME280;59609;52.430;4.668;2023-04-28T00:17:23;101392.00;;;10.28;67.77
71778;BME280;59609;52.430;4.668;2023-04-28T00:19:49;101377.56;;;10.17;67.45
71778;BME280;59609;52.430;4.668;2023-04-28T00:22:14;101372.06;;;10.17;67.24
71778;BME280;59609;52.430;4.668;2023-04-28T00:24:40;101371.19;;;10.16;68.24
71778;BME280;59609;52.430;4.668;2023-04-28T00:27:06;101366.25;;;10.10;67.93
71778;BME280;59609;52.430;4.668;2023-04-28T00:29:32;101369.00;;;10.10;67.78
71778;BME280;59609;52.430;4.668;2023-04-28T00:31:57;101365.50;;;10.18;68.62
71778;BME280;59609;52.430;4.668;2023-04-28T00:34:22;101368.56;;;10.15;68.70
71778;BME280;59609;52.430;4.668;2023-04-28T00:36:48;101366.88;;;10.14;68.89
71778;BME280;59609;52.430;4.668;2023-04-28T00:39:15;101374.66;;;10.18;69.29
71778;BME280;59609;52.430;4.668;2023-04-28T00:41:42;101366.38;;;10.18;70.28
71778;BME280;59609;52.430;4.668;2023-04-28T00:44:07;101362.75;;;10.18;69.76
71778;BME280;59609;52.430;4.668;2023-04-28T00:46:33;101350.34;;;10.14;69.96
71778;BME280;59609;52.430;4.668;2023-04-28T00:48:58;101345.38;;;10.08;69.75
71778;BME280;59609;52.430;4.668;2023-04-28T00:51:24;101355.06;;;10.12;69.39
71778;BME280;59609;52.430;4.668;2023-04-28T00:53:51;101346.41;;;10.07;69.70
71778;BME280;59609;52.430;4.668;2023-04-28T00:56:16;101338.41;;;10.13;70.15
71778;BME280;59609;52.430;4.668;2023-04-28T00:58:42;101342.78;;;10.16;69.86
71778;BME280;59609;52.430;4.668;2023-04-28T01:01:08;101322.81;;;10.14;70.54
71778;BME280;59609;52.430;4.668;2023-04-28T01:03:36;101325.38;;;10.15;70.35
71778;BME280;59609;52.430;4.668;2023-04-28T01:06:04;101325.38;;;10.15;69.69
71778;BME280;59609;52.430;4.668;2023-04-28T01:08:30;101328.31;;;10.14;70.48
71778;BME280;59609;52.430;4.668;2023-04-28T01:10:56;101321.66;;;10.07;70.30
71778;BME280;59609;52.430;4.668;2023-04-28T01:13:22;101319.19;;;10.04;69.90
71778;BME280;59609;52.430;4.668;2023-04-28T01:15:47;101320.34;;;10.01;71.87
71778;BME280;59609;52.430;4.668;2023-04-28T01:18:14;101318.81;;;9.89;72.61
71778;BME280;59609;52.430;4.668;2023-04-28T01:20:40;101316.19;;;9.97;74.42
71778;BME280;59609;52.430;4.668;2023-04-28T01:23:11;101321.44;;;9.91;74.18
71778;BME280;59609;52.430;4.668;2023-04-28T01:25:37;101310.44;;;9.81;73.65
71778;BME280;59609;52.430;4.668;2023-04-28T01:28:02;101320.13;;;9.85;73.71
71778;BME280;59609;52.430;4.668;2023-04-28T01:30:27;101313.19;;;9.91;74.12
71778;BME280;59609;52.430;4.668;2023-04-28T01:32:53;101314.53;;;9.77;73.11
71778;BME280;59609;52.430;4.668;2023-04-28T01:35:18;101303.22;;;9.80;72.86
71778;BME280;59609;52.430;4.668;2023-04-28T01:37:43;101298.72;;;9.79;73.33
71778;BME280;59609;52.430;4.668;2023-04-28T01:40:09;101297.41;;;9.83;72.99
71778;BME280;59609;52.430;4.668;2023-04-28T01:42:35;101289.28;;;9.81;72.21
71778;BME280;59609;52.430;4.668;2023-04-28T01:45:01;101291.34;;;9.79;72.40
71778;BME280;59609;52.430;4.668;2023-04-28T01:47:27;101291.94;;;9.73;71.76
71778;BME280;59609;52.430;4.668;2023-04-28T01:49:52;101285.84;;;9.79;71.92
71778;BME280;59609;52.430;4.668;2023-04-28T01:52:18;101287.66;;;9.89;71.46
71778;BME280;59609;52.430;4.668;2023-04-28T01:54:45;101282.59;;;9.84;71.72
71778;BME280;59609;52.430;4.668;2023-04-28T01:57:10;101291.94;;;9.73;70.90
71778;BME280;59609;52.430;4.668;2023-04-28T01:59:36;101282.47;;;9.86;71.71
71778;BME280;59609;52.430;4.668;2023-04-28T02:02:01;101277.28;;;9.82;71.71
71778;BME280;59609;52.430;4.668;2023-04-28T02:04:26;101279.75;;;9.76;72.76
71778;BME280;59609;52.430;4.668;2023-04-28T02:06:51;101281.19;;;9.80;72.43
71778;BME280;59609;52.430;4.668;2023-04-28T02:09:17;101276.72;;;9.79;72.71
71778;BME280;59609;52.430;4.668;2023-04-28T02:11:42;101274.84;;;9.79;72.02
71778;BME280;59609;52.430;4.668;2023-04-28T02:14:08;101263.69;;;9.71;72.00
71778;BME280;59609;52.430;4.668;2023-04-28T02:16:33;101269.03;;;9.82;71.89
71778;BME280;59609;52.430;4.668;2023-04-28T02:18:58;101261.94;;;9.80;71.56
71778;BME280;59609;52.430;4.668;2023-04-28T02:21:24;101258.63;;;9.76;72.62
71778;BME280;59609;52.430;4.668;2023-04-28T02:23:50;101253.56;;;9.72;71.88
71778;BME280;59609;52.430;4.668;2023-04-28T02:26:15;101245.31;;;9.72;71.68
71778;BME280;59609;52.430;4.668;2023-04-28T02:28:41;101243.72;;;9.69;72.43
71778;BME280;59609;52.430;4.668;2023-04-28T02:31:07;101232.88;;;9.68;72.93
71778;BME280;59609;52.430;4.668;2023-04-28T02:33:34;101234.66;;;9.59;73.55
71778;BME280;59609;52.430;4.668;2023-04-28T02:36:00;101224.34;;;9.61;73.85
71778;BME280;59609;52.430;4.668;2023-04-28T02:38:26;101220.47;;;9.54;74.60
71778;BME280;59609;52.430;4.668;2023-04-28T02:43:23;101227.09;;;9.61;73.78
71778;BME280;59609;52.430;4.668;2023-04-28T02:45:49;101212.34;;;9.62;74.26
71778;BME280;59609;52.430;4.668;2023-04-28T02:48:14;101209.78;;;9.51;73.37
71778;BME280;59609;52.430;4.668;2023-04-28T02:50:40;101205.16;;;9.52;73.39
71778;BME280;59609;52.430;4.668;2023-04-28T02:53:05;101202.97;;;9.55;72.21
71778;BME280;59609;52.430;4.668;2023-04-28T02:55:30;101199.34;;;9.55;72.59
71778;BME280;59609;52.430;4.668;2023-04-28T02:57:56;101196.59;;;9.55;72.12
71778;BME280;59609;52.430;4.668;2023-04-28T03:00:21;101197.03;;;9.60;71.84
71778;BME280;59609;52.430;4.668;2023-04-28T03:02:47;101178.94;;;9.57;71.79
71778;BME280;59609;52.430;4.668;2023-04-28T03:05:12;101178.63;;;9.60;72.04
71778;BME280;59609;52.430;4.668;2023-04-28T03:07:37;101166.91;;;9.58;72.16
71778;BME280;59609;52.430;4.668;2023-04-28T03:10:03;101143.75;;;9.51;72.31
71778;BME280;59609;52.430;4.668;2023-04-28T03:12:28;101144.06;;;9.48;72.18
71778;BME280;59609;52.430;4.668;2023-04-28T03:14:54;101141.63;;;9.45;72.81
71778;BME280;59609;52.430;4.668;2023-04-28T03:17:20;101133.44;;;9.36;72.98
71778;BME280;59609;52.430;4.668;2023-04-28T03:19:45;101142.69;;;9.35;73.79
71778;BME280;59609;52.430;4.668;2023-04-28T03:22:10;101143.69;;;9.43;72.84
71778;BME280;59609;52.430;4.668;2023-04-28T03:24:36;101144.56;;;9.44;72.80
71778;BME280;59609;52.430;4.668;2023-04-28T03:27:01;101142.94;;;9.41;73.53
71778;BME280;59609;52.430;4.668;2023-04-28T03:29:27;101146.56;;;9.42;73.36
71778;BME280;59609;52.430;4.668;2023-04-28T03:31:53;101145.19;;;9.55;73.68
71778;BME280;59609;52.430;4.668;2023-04-28T03:34:18;101131.75;;;9.52;73.65
71778;BME280;59609;52.430;4.668;2023-04-28T03:36:44;101112.41;;;9.44;73.54
71778;BME280;59609;52.430;4.668;2023-04-28T03:39:09;101109.13;;;9.41;73.83
71778;BME280;59609;52.430;4.668;2023-04-28T03:41:34;101111.56;;;9.34;73.34
71778;BME280;59609;52.430;4.668;2023-04-28T03:44:00;101110.69;;;9.43;73.28
71778;BME280;59609;52.430;4.668;2023-04-28T03:46:25;101100.56;;;9.44;73.38
71778;BME280;59609;52.430;4.668;2023-04-28T03:48:51;101090.41;;;9.44;73.12
71778;BME280;59609;52.430;4.668;2023-04-28T03:51:17;101087.50;;;9.46;73.72
71778;BME280;59609;52.430;4.668;2023-04-28T03:53:43;101077.81;;;9.42;73.54
71778;BME280;59609;52.430;4.668;2023-04-28T03:56:08;101098.63;;;9.44;73.22
71778;BME280;59609;52.430;4.668;2023-04-28T03:58:34;101102.13;;;9.46;73.20
71778;BME280;59609;52.430;4.668;2023-04-28T04:00:59;101100.94;;;9.49;73.25
71778;BME280;59609;52.430;4.668;2023-04-28T04:03:25;101102.94;;;9.56;72.84
71778;BME280;59609;52.430;4.668;2023-04-28T04:05:51;101096.69;;;9.54;72.67
71778;BME280;59609;52.430;4.668;2023-04-28T04:08:17;101088.63;;;9.53;72.08
71778;BME280;59609;52.430;4.668;2023-04-28T04:10:43;101099.16;;;9.57;72.62
71778;BME280;59609;52.430;4.668;2023-04-28T04:13:09;101095.69;;;9.55;72.47
71778;BME280;59609;52.430;4.668;2023-04-28T04:15:34;101085.25;;;9.59;71.95
71778;BME280;59609;52.430;4.668;2023-04-28T04:18:00;101082.59;;;9.67;72.87
71778;BME280;59609;52.430;4.668;2023-04-28T04:20:26;101080.69;;;9.67;71.83
71778;BME280;59609;52.430;4.668;2023-04-28T04:22:51;101073.22;;;9.60;72.17
71778;BME280;59609;52.430;4.668;2023-04-28T04:25:17;101086.69;;;9.63;72.65
71778;BME280;59609;52.430;4.668;2023-04-28T04:27:42;101086.34;;;9.66;72.72
71778;BME280;59609;52.430;4.668;2023-04-28T04:30:08;101092.25;;;9.71;72.03
71778;BME280;59609;52.430;4.668;2023-04-28T04:32:33;101092.00;;;9.64;72.51
71778;BME280;59609;52.430;4.668;2023-04-28T04:34:58;101092.25;;;9.71;71.87
71778;BME280;59609;52.430;4.668;2023-04-28T04:37:24;101095.63;;;9.65;71.59
71778;BME280;59609;52.430;4.668;2023-04-28T04:39:49;101096.34;;;9.67;71.72
71778;BME280;59609;52.430;4.668;2023-04-28T04:42:15;101090.28;;;9.63;72.00
71778;BME280;59609;52.430;4.668;2023-04-28T04:44:40;101079.38;;;9.71;71.59
71778;BME280;59609;52.430;4.668;2023-04-28T04:47:05;101074.94;;;9.61;71.68
71778;BME280;59609;52.430;4.668;2023-04-28T04:49:31;101069.78;;;9.75;71.32
71778;BME280;59609;52.430;4.668;2023-04-28T04:51:56;101078.03;;;9.75;72.59
71778;BME280;59609;52.430;4.668;2023-04-28T04:54:22;101077.16;;;9.57;75.05
71778;BME280;59609;52.430;4.668;2023-04-28T04:56:47;101040.19;;;9.42;79.45
71778;BME280;59609;52.430;4.668;2023-04-28T04:59:13;101021.47;;;9.28;81.90
71778;BME280;59609;52.430;4.668;2023-04-28T05:01:38;100998.84;;;9.16;86.26
71778;BME280;59609;52.430;4.668;2023-04-28T05:04:04;100984.59;;;9.03;87.33
71778;BME280;59609;52.430;4.668;2023-04-28T05:06:29;100972.63;;;8.95;88.23
71778;BME280;59609;52.430;4.668;2023-04-28T05:08:55;100976.69;;;8.91;90.11
71778;BME280;59609;52.430;4.668;2023-04-28T05:11:22;100970.00;;;8.75;91.11
71778;BME280;59609;52.430;4.668;2023-04-28T05:13:47;100966.53;;;8.73;92.88
71778;BME280;59609;52.430;4.668;2023-04-28T05:16:13;100959.94;;;8.66;92.53
71778;BME280;59609;52.430;4.668;2023-04-28T05:18:39;100977.09;;;8.68;92.41
71778;BME280;59609;52.430;4.668;2023-04-28T05:21:04;100995.03;;;8.72;93.24
71778;BME280;59609;52.430;4.668;2023-04-28T05:23:30;101002.50;;;8.80;92.70
71778;BME280;59609;52.430;4.668;2023-04-28T05:25:56;101014.38;;;8.81;92.47
71778;BME280;59609;52.430;4.668;2023-04-28T05:28:21;101026.56;;;8.96;91.27
71778;BME280;59609;52.430;4.668;2023-04-28T05:30:47;101044.88;;;9.05;90.53
71778;BME280;59609;52.430;4.668;2023-04-28T05:33:12;101055.25;;;9.20;91.14
71778;BME280;59609;52.430;4.668;2023-04-28T05:35:38;101069.25;;;9.27;89.62
71778;BME280;59609;52.430;4.668;2023-04-28T05:38:03;101069.56;;;9.42;90.28
71778;BME280;59609;52.430;4.668;2023-04-28T05:40:29;101063.44;;;9.48;89.42
71778;BME280;59609;52.430;4.668;2023-04-28T05:42:54;101056.88;;;9.58;91.30
71778;BME280;59609;52.430;4.668;2023-04-28T05:45:20;101055.84;;;9.59;92.07
71778;BME280;59609;52.430;4.668;2023-04-28T05:47:45;101057.75;;;9.59;92.23
71778;BME280;59609;52.430;4.668;2023-04-28T05:50:11;101050.03;;;9.62;92.24
71778;BME280;59609;52.430;4.668;2023-04-28T05:52:36;101060.72;;;9.65;92.74
71778;BME280;59609;52.430;4.668;2023-04-28T05:55:01;101057.19;;;9.55;93.33
71778;BME280;59609;52.430;4.668;2023-04-28T05:57:27;101056.50;;;9.53;93.29
71778;BME280;59609;52.430;4.668;2023-04-28T05:59:53;101060.66;;;9.57;93.01
71778;BME280;59609;52.430;4.668;2023-04-28T06:02:18;101056.81;;;9.50;93.12
71778;BME280;59609;52.430;4.668;2023-04-28T06:04:43;101058.19;;;9.54;93.01
71778;BME280;59609;52.430;4.668;2023-04-28T06:07:09;101058.63;;;9.59;94.22
71778;BME280;59609;52.430;4.668;2023-04-28T06:09:35;101049.81;;;9.73;94.43
71778;BME280;59609;52.430;4.668;2023-04-28T06:12:01;101053.09;;;9.59;93.57
71778;BME280;59609;52.430;4.668;2023-04-28T06:14:28;101042.97;;;9.60;94.63
71778;BME280;59609;52.430;4.668;2023-04-28T06:16:53;101044.84;;;9.59;95.66
71778;BME280;59609;52.430;4.668;2023-04-28T06:19:19;101032.13;;;9.58;95.47
71778;BME280;59609;52.430;4.668;2023-04-28T06:21:45;101035.72;;;9.59;93.96
71778;BME280;59609;52.430;4.668;2023-04-28T06:24:10;101045.72;;;9.60;94.10
71778;BME280;59609;52.430;4.668;2023-04-28T06:26:36;101042.81;;;9.79;95.60
71778;BME280;59609;52.430;4.668;2023-04-28T06:29:02;101044.47;;;9.72;93.74
71778;BME280;59609;52.430;4.668;2023-04-28T06:31:27;101038.50;;;9.76;94.46
71778;BME280;59609;52.430;4.668;2023-04-28T06:33:53;101040.06;;;9.79;94.69
71778;BME280;59609;52.430;4.668;2023-04-28T06:36:18;101035.81;;;9.84;94.72
71778;BME280;59609;52.430;4.668;2023-04-28T06:38:44;101022.84;;;9.95;95.40
71778;BME280;59609;52.430;4.668;2023-04-28T06:41:10;101006.28;;;9.87;94.84
71778;BME280;59609;52.430;4.668;2023-04-28T06:43:36;101019.53;;;9.91;95.05
71778;BME280;59609;52.430;4.668;2023-04-28T06:46:02;101023.56;;;9.97;94.81
71778;BME280;59609;52.430;4.668;2023-04-28T06:48:27;101013.94;;;10.01;94.89
71778;BME280;59609;52.430;4.668;2023-04-28T06:50:53;101014.97;;;10.17;94.73
71778;BME280;59609;52.430;4.668;2023-04-28T06:53:18;101006.00;;;10.15;93.39
71778;BME280;59609;52.430;4.668;2023-04-28T06:55:44;100995.75;;;10.08;94.48
71778;BME280;59609;52.430;4.668;2023-04-28T06:58:09;100997.94;;;10.14;94.63
71778;BME280;59609;52.430;4.668;2023-04-28T07:00:35;101001.38;;;10.16;93.99
71778;BME280;59609;52.430;4.668;2023-04-28T07:03:01;101008.19;;;10.29;92.98
71778;BME280;59609;52.430;4.668;2023-04-28T07:05:26;100996.53;;;10.36;92.79
71778;BME280;59609;52.430;4.668;2023-04-28T07:07:53;101001.50;;;10.32;92.47
71778;BME280;59609;52.430;4.668;2023-04-28T07:10:18;101002.31;;;10.50;91.40
71778;BME280;59609;52.430;4.668;2023-04-28T07:12:44;100999.56;;;10.50;91.66
71778;BME280;59609;52.430;4.668;2023-04-28T07:15:09;101001.56;;;10.40;91.98
71778;BME280;59609;52.430;4.668;2023-04-28T07:17:35;100996.50;;;10.61;92.11
71778;BME280;59609;52.430;4.668;2023-04-28T07:20:00;100995.44;;;10.54;90.63
71778;BME280;59609;52.430;4.668;2023-04-28T07:22:26;100997.81;;;10.49;91.61
71778;BME280;59609;52.430;4.668;2023-04-28T07:24:51;100996.28;;;10.55;91.43
71778;BME280;59609;52.430;4.668;2023-04-28T07:27:17;100984.63;;;10.61;91.94
71778;BME280;59609;52.430;4.668;2023-04-28T07:29:42;100985.47;;;10.53;91.17
71778;BME280;59609;52.430;4.668;2023-04-28T07:32:08;100993.84;;;10.77;91.63
71778;BME280;59609;52.430;4.668;2023-04-28T07:34:35;100990.66;;;10.90;91.63
71778;BME280;59609;52.430;4.668;2023-04-28T07:37:02;100995.28;;;10.90;90.96
71778;BME280;59609;52.430;4.668;2023-04-28T07:39:28;100994.69;;;10.78;89.00
71778;BME280;59609;52.430;4.668;2023-04-28T07:41:55;101005.38;;;10.81;90.19
71778;BME280;59609;52.430;4.668;2023-04-28T07:44:22;101003.50;;;10.81;90.71
71778;BME280;59609;52.430;4.668;2023-04-28T07:46:48;101002.06;;;10.69;90.74
71778;BME280;59609;52.430;4.668;2023-04-28T07:49:13;100994.28;;;10.65;90.05
71778;BME280;59609;52.430;4.668;2023-04-28T07:51:39;100999.72;;;10.82;90.69
71778;BME280;59609;52.430;4.668;2023-04-28T07:54:04;100999.06;;;10.89;90.02
71778;BME280;59609;52.430;4.668;2023-04-28T07:56:29;101002.22;;;11.02;90.37
71778;BME280;59609;52.430;4.668;2023-04-28T07:58:55;100997.56;;;11.02;91.44
71778;BME280;59609;52.430;4.668;2023-04-28T08:01:21;100984.69;;;10.69;92.34
71778;BME280;59609;52.430;4.668;2023-04-28T08:03:46;100992.97;;;10.43;95.24
71778;BME280;59609;52.430;4.668;2023-04-28T08:06:12;100989.03;;;10.46;96.55
71778;BME280;59609;52.430;4.668;2023-04-28T08:08:37;100987.41;;;10.35;100.00
71778;BME280;59609;52.430;4.668;2023-04-28T08:11:03;100988.44;;;10.34;100.00
71778;BME280;59609;52.430;4.668;2023-04-28T08:13:29;100983.44;;;10.38;100.00
71778;BME280;59609;52.430;4.668;2023-04-28T08:15:55;100981.66;;;10.11;100.00
71778;BME280;59609;52.430;4.668;2023-04-28T08:18:21;100980.69;;;9.94;100.00
71778;BME280;59609;52.430;4.668;2023-04-28T08:20:46;100979.75;;;10.03;100.00
71778;BME280;59609;52.430;4.668;2023-04-28T08:23:12;100981.16;;;10.07;100.00
71778;BME280;59609;52.430;4.668;2023-04-28T08:25:37;100976.56;;;10.33;100.00
71778;BME280;59609;52.430;4.668;2023-04-28T08:28:03;100979.66;;;10.13;100.00
71778;BME280;59609;52.430;4.668;2023-04-28T08:30:30;100973.91;;;10.24;100.00
71778;BME280;59609;52.430;4.668;2023-04-28T08:32:55;100977.84;;;10.21;100.00
71778;BME280;59609;52.430;4.668;2023-04-28T08:35:21;100968.00;;;10.45;100.00
71778;BME280;59609;52.430;4.668;2023-04-28T08:37:46;100974.22;;;10.47;100.00
71778;BME280;59609;52.430;4.668;2023-04-28T08:40:14;100971.75;;;10.36;100.00
71778;BME280;59609;52.430;4.668;2023-04-28T08:42:40;100968.38;;;10.50;100.00
71778;BME280;59609;52.430;4.668;2023-04-28T08:45:06;100968.22;;;10.51;100.00
71778;BME280;59609;52.430;4.668;2023-04-28T08:47:36;100972.13;;;10.41;100.00
71778;BME280;59609;52.430;4.668;2023-04-28T08:50:06;100956.75;;;10.64;100.00
71778;BME280;59609;52.430;4.668;2023-04-28T08:52:33;100970.63;;;10.80;100.00
71778;BME280;59609;52.430;4.668;2023-04-28T08:55:00;100969.56;;;10.81;100.00
71778;BME280;59609;52.430;4.668;2023-04-28T08:57:29;100973.56;;;10.87;100.00
71778;BME280;59609;52.430;4.668;2023-04-28T08:59:58;100966.53;;;10.92;100.00
71778;BME280;59609;52.430;4.668;2023-04-28T09:02:23;100962.22;;;10.98;100.00
71778;BME280;59609;52.430;4.668;2023-04-28T09:04:48;100959.81;;;10.95;100.00
71778;BME280;59609;52.430;4.668;2023-04-28T09:07:14;100958.16;;;11.10;100.00
71778;BME280;59609;52.430;4.668;2023-04-28T09:09:39;100954.03;;;11.22;100.00
71778;BME280;59609;52.430;4.668;2023-04-28T09:12:06;100956.19;;;11.60;100.00
71778;BME280;59609;52.430;4.668;2023-04-28T09:14:33;100956.47;;;11.41;100.00
71778;BME280;59609;52.430;4.668;2023-04-28T09:17:08;100961.28;;;11.23;100.00
71778;BME280;59609;52.430;4.668;2023-04-28T09:19:34;100958.50;;;11.07;100.00
71778;BME280;59609;52.430;4.668;2023-04-28T09:22:00;100956.59;;;11.15;100.00
71778;BME280;59609;52.430;4.668;2023-04-28T09:24:32;100960.91;;;11.18;100.00
71778;BME280;59609;52.430;4.668;2023-04-28T09:26:59;100952.38;;;11.61;100.00
71778;BME280;59609;52.430;4.668;2023-04-28T09:29:25;100947.38;;;11.41;100.00
71778;BME280;59609;52.430;4.668;2023-04-28T09:31:51;100946.50;;;11.64;100.00
71778;BME280;59609;52.430;4.668;2023-04-28T09:34:17;100941.34;;;12.18;100.00
71778;BME280;59609;52.430;4.668;2023-04-28T09:36:43;100944.13;;;11.69;100.00
71778;BME280;59609;52.430;4.668;2023-04-28T09:39:08;100936.69;;;11.62;100.00
71778;BME280;59609;52.430;4.668;2023-04-28T09:44:13;100945.19;;;11.76;100.00
71778;BME280;59609;52.430;4.668;2023-04-28T09:46:39;100945.19;;;11.76;100.00
71778;BME280;59609;52.430;4.668;2023-04-28T09:49:04;100936.38;;;11.89;100.00
71778;BME280;59609;52.430;4.668;2023-04-28T09:51:30;100933.78;;;12.12;100.00
71778;BME280;59609;52.430;4.668;2023-04-28T09:53:58;100933.63;;;11.89;100.00
71778;BME280;59609;52.430;4.668;2023-04-28T09:56:24;100941.72;;;12.07;100.00
71778;BME280;59609;52.430;4.668;2023-04-28T09:58:52;100931.53;;;12.23;100.00
71778;BME280;59609;52.430;4.668;2023-04-28T10:01:18;100932.38;;;12.24;100.00
71778;BME280;59609;52.430;4.668;2023-04-28T10:03:44;100931.94;;;12.59;100.00
71778;BME280;59609;52.430;4.668;2023-04-28T10:06:10;100937.19;;;12.30;100.00
71778;BME280;59609;52.430;4.668;2023-04-28T10:08:35;100927.69;;;12.24;100.00
71778;BME280;59609;52.430;4.668;2023-04-28T10:11:01;100928.78;;;11.99;100.00
71778;BME280;59609;52.430;4.668;2023-04-28T10:13:27;100927.69;;;12.24;100.00
71778;BME280;59609;52.430;4.668;2023-04-28T10:15:53;100930.63;;;12.39;100.00
71778;BME280;59609;52.430;4.668;2023-04-28T10:18:21;100914.75;;;12.25;100.00
71778;BME280;59609;52.430;4.668;2023-04-28T10:20:49;100929.28;;;12.27;100.00
71778;BME280;59609;52.430;4.668;2023-04-28T10:26:13;100932.88;;;12.35;100.00
71778;BME280;59609;52.430;4.668;2023-04-28T10:28:49;100932.00;;;12.43;100.00
71778;BME280;59609;52.430;4.668;2023-04-28T10:31:19;100927.72;;;12.71;100.00
71778;BME280;59609;52.430;4.668;2023-04-28T10:33:45;100933.09;;;12.73;100.00
71778;BME280;59609;52.430;4.668;2023-04-28T10:36:50;100937.50;;;12.43;100.00
71778;BME280;59609;52.430;4.668;2023-04-28T10:39:18;100938.84;;;12.63;100.00
71778;BME280;59609;52.430;4.668;2023-04-28T10:41:47;100930.50;;;12.71;100.00
71778;BME280;59609;52.430;4.668;2023-04-28T10:47:04;100933.59;;;12.76;100.00
71778;BME280;59609;52.430;4.668;2023-04-28T10:55:35;100933.88;;;12.51;100.00
71778;BME280;59609;52.430;4.668;2023-04-28T11:00:52;100921.56;;;13.00;100.00
71778;BME280;59609;52.430;4.668;2023-04-28T11:06:19;100923.28;;;13.09;100.00
71778;BME280;59609;52.430;4.668;2023-04-28T11:08:47;100931.31;;;13.27;100.00
71778;BME280;59609;52.430;4.668;2023-04-28T11:11:13;100921.66;;;13.23;100.00
71778;BME280;59609;52.430;4.668;2023-04-28T11:13:39;100928.34;;;13.51;100.00
71778;BME280;59609;52.430;4.668;2023-04-28T11:16:06;100927.66;;;13.57;100.00
71778;BME280;59609;52.430;4.668;2023-04-28T11:21:13;100928.25;;;13.67;100.00
71778;BME280;59609;52.430;4.668;2023-04-28T11:23:39;100928.47;;;13.58;100.00
71778;BME280;59609;52.430;4.668;2023-04-28T11:26:04;100920.78;;;13.45;100.00
71778;BME280;59609;52.430;4.668;2023-04-28T11:28:30;100930.75;;;13.31;100.00
71778;BME280;59609;52.430;4.668;2023-04-28T11:33:37;100928.91;;;13.24;100.00
71778;BME280;59609;52.430;4.668;2023-04-28T11:36:04;100926.66;;;13.27;100.00
71778;BME280;59609;52.430;4.668;2023-04-28T11:38:30;100923.03;;;13.19;100.00
71778;BME280;59609;52.430;4.668;2023-04-28T11:41:06;100924.94;;;13.49;100.00
71778;BME280;59609;52.430;4.668;2023-04-28T11:43:32;100928.84;;;13.55;100.00
71778;BME280;59609;52.430;4.668;2023-04-28T11:45:57;100926.69;;;13.65;100.00
71778;BME280;59609;52.430;4.668;2023-04-28T11:48:25;100923.44;;;13.61;100.00
71778;BME280;59609;52.430;4.668;2023-04-28T11:50:51;100933.59;;;13.46;100.00
71778;BME280;59609;52.430;4.668;2023-04-28T11:53:16;100931.44;;;13.33;100.00
71778;BME280;59609;52.430;4.668;2023-04-28T11:55:42;100935.91;;;13.34;100.00
71778;BME280;59609;52.430;4.668;2023-04-28T11:58:20;100926.44;;;13.29;100.00
71778;BME280;59609;52.430;4.668;2023-04-28T12:01:09;100926.34;;;13.45;100.00
71778;BME280;59609;52.430;4.668;2023-04-28T12:03:46;100925.28;;;13.46;100.00
71778;BME280;59609;52.430;4.668;2023-04-28T12:06:16;100924.50;;;13.60;100.00
71778;BME280;59609;52.430;4.668;2023-04-28T12:08:44;100937.59;;;13.44;100.00
71778;BME280;59609;52.430;4.668;2023-04-28T12:11:11;100935.13;;;13.49;100.00
71778;BME280;59609;52.430;4.668;2023-04-28T12:13:42;100934.34;;;13.40;100.00
71778;BME280;59609;52.430;4.668;2023-04-28T12:16:07;100932.66;;;13.31;100.00
71778;BME280;59609;52.430;4.668;2023-04-28T12:18:34;100935.84;;;13.20;100.00
71778;BME280;59609;52.430;4.668;2023-04-28T12:21:03;100941.25;;;13.13;100.00
71778;BME280;59609;52.430;4.668;2023-04-28T12:23:34;100941.16;;;13.29;100.00
71778;BME280;59609;52.430;4.668;2023-04-28T12:26:01;100940.91;;;13.39;100.00
71778;BME280;59609;52.430;4.668;2023-04-28T12:28:37;100949.16;;;13.47;100.00
71778;BME280;59609;52.430;4.668;2023-04-28T12:31:04;100948.47;;;13.45;100.00
71778;BME280;59609;52.430;4.668;2023-04-28T12:33:30;100957.16;;;13.42;100.00
71778;BME280;59609;52.430;4.668;2023-04-28T12:35:58;100959.41;;;13.38;100.00
71778;BME280;59609;52.430;4.668;2023-04-28T12:38:24;100940.16;;;13.45;100.00
71778;BME280;59609;52.430;4.668;2023-04-28T12:40:50;100954.63;;;13.55;100.00
71778;BME280;59609;52.430;4.668;2023-04-28T12:43:15;100955.41;;;13.41;100.00
71778;BME280;59609;52.430;4.668;2023-04-28T12:45:40;100964.19;;;13.53;100.00
71778;BME280;59609;52.430;4.668;2023-04-28T12:48:06;100955.84;;;13.30;100.00
71778;BME280;59609;52.430;4.668;2023-04-28T12:50:32;100960.91;;;13.18;100.00
71778;BME280;59609;52.430;4.668;2023-04-28T12:52:57;100967.53;;;13.40;100.00
71778;BME280;59609;52.430;4.668;2023-04-28T12:55:24;100961.47;;;13.14;100.00
71778;BME280;59609;52.430;4.668;2023-04-28T12:57:49;100972.91;;;13.11;100.00
71778;BME280;59609;52.430;4.668;2023-04-28T13:00:15;100964.75;;;13.17;100.00
71778;BME280;59609;52.430;4.668;2023-04-28T13:02:42;100975.59;;;13.27;100.00
71778;BME280;59609;52.430;4.668;2023-04-28T13:05:07;100973.13;;;13.32;100.00
71778;BME280;59609;52.430;4.668;2023-04-28T13:07:33;100973.38;;;13.14;100.00
71778;BME280;59609;52.430;4.668;2023-04-28T13:09:59;100963.66;;;13.26;100.00
71778;BME280;59609;52.430;4.668;2023-04-28T13:12:24;100977.66;;;13.25;100.00